Triumph IV — WBE7581 — position and weather

sailwx.info

Track history (hours):
 
Tides and Currents Weather Stations Pressure Air Temp Water Temp Dewpoint Dewpoint Depression Visibility Wind Speed Wind Dir Waves Ship Positions

Triumph IV

Last reported at 2018-Feb-17 20:59 UTC. Time now 2018-Feb-17 21:18 UTC.
Position N 45°37' W 122°42'.

Length 13 m.

MMSI: 367177660.

Date/timePositionNaut miles runAvg speedWind from/ knotsBaromVisibWave heightAir tempDewpointWater temp
2018-Feb-17 20:59N 45°37' W 122°42'2 4.0
2018-Feb-17 20:30N 45°38' W 122°44'510.0
2018-Feb-17 20:00N 45°36' W 122°38'4 8.7
2018-Feb-17 19:30N 45°38' W 122°43'1 1.5
2018-Feb-17 18:32N 45°39' W 122°45'0 0.0
2018-Feb-17 18:26N 45°39' W 122°45'1 1.2
2018-Feb-17 17:43N 45°38' W 122°44'0 0.0
2018-Feb-17 17:28N 45°38' W 122°44'1 1.1
2018-Feb-17 16:42N 45°39' W 122°45'210.0
2018-Feb-17 16:30N 45°37' W 122°43'2 3.2
2018-Feb-17 15:59N 45°36' W 122°41'0 0.0
2018-Feb-17 15:29N 45°36' W 122°41'0 0.0
2018-Feb-17 14:41N 45°36' W 122°41'0 0.0
2018-Feb-17 14:29N 45°36' W 122°41'0 0.1
2018-Feb-17 14:00N 45°36' W 122°41'3 6.0
2018-Feb-17 13:30N 45°39' W 122°44'3 0.9
2018-Feb-17 10:14N 45°36' W 122°41'0 0.0
2018-Feb-17 09:56N 45°36' W 122°41'0 0.0
2018-Feb-17 09:23N 45°36' W 122°41'0 0.0
2018-Feb-17 08:56N 45°36' W 122°41'0 0.0
2018-Feb-17 08:26N 45°36' W 122°41'0 0.0
2018-Feb-17 07:59N 45°36' W 122°41'0 0.0
2018-Feb-17 07:29N 45°36' W 122°41'0 0.0
2018-Feb-17 06:50N 45°36' W 122°41'0 0.0
2018-Feb-17 05:59N 45°36' W 122°41'0 0.0
2018-Feb-17 05:26N 45°36' W 122°41'0 0.0
2018-Feb-17 04:59N 45°36' W 122°41'0 0.0
2018-Feb-17 04:29N 45°36' W 122°41'0 0.0
2018-Feb-17 03:08N 45°36' W 122°41'0 0.0
2018-Feb-17 02:59N 45°36' W 122°41'0 0.0
2018-Feb-17 02:29N 45°36' W 122°41'0 0.0
2018-Feb-17 01:59N 45°36' W 122°41'0 0.0
2018-Feb-17 01:23N 45°36' W 122°41'0 0.0
2018-Feb-17 00:59N 45°36' W 122°41'0 0.0
2018-Feb-17 00:26N 45°36' W 122°41'0 0.0
2018-Feb-16 23:56N 45°36' W 122°41'0 0.0
2018-Feb-16 23:29N 45°36' W 122°41'0 0.0
2018-Feb-16 22:59N 45°36' W 122°41'0 0.0
2018-Feb-16 22:14N 45°36' W 122°41'0 0.0
2018-Feb-16 21:50N 45°36' W 122°41'0 0.0
2018-Feb-16 20:23N 45°36' W 122°41'0 0.0
2018-Feb-16 19:56N 45°36' W 122°41'0 0.0
2018-Feb-16 19:23N 45°36' W 122°41'0 0.0
2018-Feb-16 18:56N 45°36' W 122°41'0 0.0
2018-Feb-16 18:29N 45°36' W 122°41'0 0.0
2018-Feb-16 17:53N 45°36' W 122°41'0 0.0
2018-Feb-16 17:20N 45°36' W 122°41'0 0.0
2018-Feb-16 16:11N 45°36' W 122°41'0 0.0
2018-Feb-16 15:50N 45°36' W 122°41'0 0.0
2018-Feb-16 15:29N 45°36' W 122°41'0 0.0
2018-Feb-16 14:50N 45°36' W 122°41'0 0.0
2018-Feb-16 14:17N 45°36' W 122°41'0 0.0
2018-Feb-16 13:56N 45°36' W 122°41'0 0.0
2018-Feb-16 13:26N 45°36' W 122°41'0 0.0
2018-Feb-16 12:59N 45°36' W 122°41'0 0.0
2018-Feb-16 12:29N 45°36' W 122°41'0 0.0
2018-Feb-16 11:41N 45°36' W 122°41'0 0.0
2018-Feb-16 11:29N 45°36' W 122°41'0 0.0
2018-Feb-16 10:59N 45°36' W 122°41'0 0.0
2018-Feb-16 10:29N 45°36' W 122°41'0 0.0
2018-Feb-16 09:59N 45°36' W 122°41'0 0.0
2018-Feb-16 09:02N 45°36' W 122°41'0 0.0
2018-Feb-16 08:59N 45°36' W 122°41'0 0.0
2018-Feb-16 08:30N 45°36' W 122°41'3 5.6
2018-Feb-16 08:00N 45°38' W 122°44'1 1.4
2018-Feb-16 07:27N 45°39' W 122°45'3 6.9
2018-Feb-16 07:01N 45°37' W 122°42'1 1.1
2018-Feb-16 06:26N 45°36' W 122°41'0 0.0
2018-Feb-16 05:56N 45°36' W 122°41'0 0.0
2018-Feb-16 05:27N 45°36' W 122°41'0 0.0
2018-Feb-16 04:47N 45°36' W 122°41'0 0.0
2018-Feb-16 04:29N 45°36' W 122°41'0 0.0
2018-Feb-16 03:59N 45°36' W 122°41'0 0.0
2018-Feb-16 03:29N 45°36' W 122°41'1 1.5
2018-Feb-16 02:59N 45°37' W 122°42'2 3.6
2018-Feb-16 02:29N 45°38' W 122°43'3 6.4
2018-Feb-16 01:59N 45°41' W 122°46'0 0.0
2018-Feb-16 01:30N 45°41' W 122°46'3 6.1
2018-Feb-16 01:00N 45°38' W 122°44'3 4.3
2018-Feb-16 00:23N 45°36' W 122°41'2 4.2
2018-Feb-16 00:00N 45°37' W 122°43'2 3.7
2018-Feb-15 23:30N 45°39' W 122°45'3 5.5
2018-Feb-15 23:00N 45°37' W 122°41'2 3.8
2018-Feb-15 22:30N 45°38' W 122°43'2 4.6
2018-Feb-15 21:59N 45°40' W 122°46'2 2.7
2018-Feb-15 21:26N 45°39' W 122°45'2 2.7
2018-Feb-15 20:52N 45°40' W 122°46'0 0.1
2018-Feb-15 20:30N 45°40' W 122°46'5 8.5
2018-Feb-15 19:57N 45°37' W 122°41'2 3.9
2018-Feb-15 19:30N 45°37' W 122°38'2 3.7
2018-Feb-15 18:59N 45°36' W 122°41'0 0.0
2018-Feb-15 18:17N 45°36' W 122°41'0 0.0
2018-Feb-15 17:59N 45°36' W 122°41'0 0.0
2018-Feb-15 17:29N 45°36' W 122°41'0 0.0
2018-Feb-15 16:50N 45°36' W 122°41'0 0.0
2018-Feb-15 16:26N 45°36' W 122°41'0 0.0
2018-Feb-15 15:53N 45°36' W 122°41'0 0.0
2018-Feb-15 15:29N 45°36' W 122°41'0 0.0
2018-Feb-15 14:56N 45°36' W 122°41'0 0.0
2018-Feb-15 14:29N 45°36' W 122°41'0 0.0
2018-Feb-15 13:59N 45°36' W 122°41'0 0.0
2018-Feb-15 13:26N 45°36' W 122°41'0 0.0
2018-Feb-15 12:59N 45°36' W 122°41'0 0.0
2018-Feb-15 12:29N 45°36' W 122°41'0 0.0
2018-Feb-15 11:11N 45°36' W 122°41'0 0.0
2018-Feb-15 10:53N 45°36' W 122°41'0 0.0
2018-Feb-15 10:02N 45°36' W 122°41'0 0.0
2018-Feb-15 09:59N 45°36' W 122°41'0 0.0
2018-Feb-15 09:29N 45°36' W 122°41'0 0.0
2018-Feb-15 08:59N 45°36' W 122°41'0 0.0
2018-Feb-15 08:26N 45°36' W 122°41'0 0.0
2018-Feb-15 07:56N 45°36' W 122°41'0 0.0
2018-Feb-15 07:29N 45°36' W 122°41'0 0.0
2018-Feb-15 06:59N 45°36' W 122°41'0 0.0
2018-Feb-15 06:02N 45°36' W 122°41'0 0.0
2018-Feb-15 05:56N 45°36' W 122°41'0 0.0
2018-Feb-15 05:29N 45°36' W 122°41'0 0.0
2018-Feb-15 04:59N 45°36' W 122°41'0 0.0
2018-Feb-15 04:29N 45°36' W 122°41'0 0.0
2018-Feb-15 03:56N 45°36' W 122°41'0 0.0
2018-Feb-15 03:29N 45°36' W 122°41'0 0.0
2018-Feb-15 02:59N 45°36' W 122°41'0 0.0
2018-Feb-15 02:23N 45°36' W 122°41'0 0.0
2018-Feb-15 01:53N 45°36' W 122°41'0 0.0
2018-Feb-15 01:29N 45°36' W 122°41'0 0.0
2018-Feb-15 00:59N 45°36' W 122°41'0 0.0
2018-Feb-15 00:29N 45°36' W 122°41'0 0.0
2018-Feb-14 23:59N 45°36' W 122°41'0 0.0
2018-Feb-14 23:29N 45°36' W 122°41'0 0.0
2018-Feb-14 22:59N 45°36' W 122°41'0 0.0
2018-Feb-14 22:23N 45°36' W 122°41'0 0.0
2018-Feb-14 21:59N 45°36' W 122°41'0 0.0
2018-Feb-14 21:26N 45°36' W 122°41'0 0.0
2018-Feb-14 20:59N 45°36' W 122°41'0 0.0
2018-Feb-14 20:29N 45°36' W 122°41'0 0.0
2018-Feb-14 19:59N 45°36' W 122°41'0 0.0
2018-Feb-14 19:26N 45°36' W 122°41'0 0.0
2018-Feb-14 18:53N 45°36' W 122°41'0 0.0
2018-Feb-14 18:29N 45°36' W 122°41'2 3.2
2018-Feb-14 17:59N 45°37' W 122°43'3 6.5
2018-Feb-14 17:27N 45°40' W 122°46'1 3.1
2018-Feb-14 17:00N 45°39' W 122°45'0 0.6
2018-Feb-14 16:30N 45°39' W 122°45'3 4.8
2018-Feb-14 15:47N 45°36' W 122°41'0 0.0
2018-Feb-14 15:23N 45°36' W 122°41'0 0.0
2018-Feb-14 14:59N 45°36' W 122°41'0 0.0
2018-Feb-14 14:11N 45°36' W 122°41'0 0.0
2018-Feb-14 13:56N 45°36' W 122°41'0 0.0
2018-Feb-14 13:29N 45°36' W 122°41'0 0.0
2018-Feb-14 12:50N 45°36' W 122°41'0 0.0
2018-Feb-14 12:30N 45°36' W 122°41'0 0.0
2018-Feb-14 11:26N 45°36' W 122°41'0 0.0
2018-Feb-14 10:41N 45°36' W 122°41'0 0.0
2018-Feb-14 10:26N 45°36' W 122°41'0 0.0
2018-Feb-14 09:59N 45°36' W 122°41'0 0.0
2018-Feb-14 09:29N 45°36' W 122°41'0 0.0
2018-Feb-14 08:56N 45°36' W 122°41'0 0.0
2018-Feb-14 08:29N 45°36' W 122°41'0 0.0
2018-Feb-14 07:59N 45°36' W 122°41'0 0.0
2018-Feb-14 07:27N 45°36' W 122°41'0 0.0
2018-Feb-14 06:53N 45°36' W 122°41'0 0.0
2018-Feb-14 06:29N 45°36' W 122°41'0 0.0
2018-Feb-14 05:56N 45°36' W 122°41'0 0.0
2018-Feb-14 05:29N 45°36' W 122°41'0 0.0
2018-Feb-14 04:56N 45°36' W 122°41'0 0.0
2018-Feb-14 04:26N 45°36' W 122°41'0 0.0
2018-Feb-14 03:59N 45°36' W 122°41'0 0.0
2018-Feb-14 03:30N 45°36' W 122°41'0 0.0
2018-Feb-14 02:59N 45°36' W 122°41'1 1.9
2018-Feb-14 02:30N 45°37' W 122°42'4 7.9
2018-Feb-14 01:59N 45°40' W 122°46'0 0.0
2018-Feb-14 01:23N 45°40' W 122°46'0 0.1
2018-Feb-14 00:56N 45°40' W 122°46'2 1.8
2018-Feb-14 00:04N 45°39' W 122°45'0 0.0
2018-Feb-14 00:00N 45°39' W 122°45'4 8.3
2018-Feb-13 23:29N 45°37' W 122°39'1 1.9
2018-Feb-13 22:57N 45°36' W 122°38'2 4.0
2018-Feb-13 22:29N 45°36' W 122°41'0 0.2
2018-Feb-13 21:19N 45°37' W 122°41'5 7.2
2018-Feb-13 20:36N 45°40' W 122°46'110.4
2018-Feb-13 20:29N 45°41' W 122°46'511.1
2018-Feb-13 20:00N 45°37' W 122°42'1 1.7
2018-Feb-13 19:29N 45°36' W 122°41'0 0.0
2018-Feb-13 18:59N 45°36' W 122°41'0 0.0
2018-Feb-13 18:17N 45°36' W 122°41'0 0.0
2018-Feb-13 17:44N 45°36' W 122°41'0 0.0
2018-Feb-13 17:23N 45°36' W 122°41'0 0.0
2018-Feb-13 16:50N 45°36' W 122°41'0 0.0
2018-Feb-13 16:29N 45°36' W 122°41'0 0.0
2018-Feb-13 15:38N 45°36' W 122°41'0 0.0
2018-Feb-13 15:20N 45°36' W 122°41'0 0.0
2018-Feb-13 14:59N 45°36' W 122°41'0 0.0
2018-Feb-13 14:23N 45°36' W 122°41'0 0.0
2018-Feb-13 13:59N 45°36' W 122°41'0 0.0
2018-Feb-13 13:26N 45°36' W 122°41'0 0.0
2018-Feb-13 12:44N 45°36' W 122°41'0 0.0
2018-Feb-13 12:29N 45°36' W 122°41'0 0.0
2018-Feb-13 11:59N 45°36' W 122°41'0 0.0
2018-Feb-13 11:26N 45°36' W 122°41'0 0.0
2018-Feb-13 10:56N 45°36' W 122°41'0 0.0
2018-Feb-13 10:23N 45°36' W 122°41'0 0.0
2018-Feb-13 09:56N 45°36' W 122°41'0 0.0
2018-Feb-13 09:23N 45°36' W 122°41'0 0.0
2018-Feb-13 08:59N 45°36' W 122°41'0 0.0
2018-Feb-13 08:26N 45°36' W 122°41'0 0.0
2018-Feb-13 07:53N 45°36' W 122°41'0 0.0
2018-Feb-13 07:26N 45°36' W 122°41'0 0.0
2018-Feb-13 06:56N 45°36' W 122°41'0 0.0
2018-Feb-13 06:26N 45°36' W 122°41'0 0.0
2018-Feb-13 05:47N 45°36' W 122°41'0 0.0
2018-Feb-13 05:23N 45°36' W 122°41'0 0.0
2018-Feb-13 04:59N 45°36' W 122°41'0 0.0
2018-Feb-13 04:17N 45°36' W 122°41'0 0.0
2018-Feb-13 03:47N 45°36' W 122°41'0 0.0
2018-Feb-13 03:14N 45°36' W 122°41'0 0.0
2018-Feb-13 02:59N 45°36' W 122°41'0 0.0
2018-Feb-13 02:26N 45°36' W 122°41'0 0.0
2018-Feb-13 01:44N 45°36' W 122°41'0 0.0
2018-Feb-13 01:29N 45°36' W 122°41'0 0.0
2018-Feb-13 00:59N 45°36' W 122°41'0 0.0
2018-Feb-13 00:05N 45°36' W 122°41'0 0.0
2018-Feb-12 23:44N 45°36' W 122°41'0 0.0
2018-Feb-12 23:29N 45°36' W 122°41'0 0.0
2018-Feb-12 22:35N 45°36' W 122°41'0 0.0
2018-Feb-12 22:23N 45°36' W 122°41'0 1.2
2018-Feb-12 22:00N 45°37' W 122°42'4 8.4
2018-Feb-12 21:30N 45°40' W 122°46'1 2.0
2018-Feb-12 20:59N 45°39' W 122°45'0 0.7
2018-Feb-12 20:18N 45°39' W 122°44'3 9.7
2018-Feb-12 20:00N 45°37' W 122°41'510.5
2018-Feb-12 19:30N 45°41' W 122°46'1 1.4
2018-Feb-12 19:00N 45°41' W 122°46'3 5.1
2018-Feb-12 18:30N 45°39' W 122°45'3 4.5
2018-Feb-12 17:57N 45°41' W 122°46'0 0.2
2018-Feb-12 17:30N 45°41' W 122°46'4 7.6
2018-Feb-12 16:59N 45°38' W 122°43'4 6.0
2018-Feb-12 16:20N 45°36' W 122°38'1 3.8
2018-Feb-12 15:59N 45°36' W 122°40'1 1.3
2018-Feb-12 15:29N 45°36' W 122°41'0 0.0
2018-Feb-12 14:56N 45°36' W 122°41'0 0.0
2018-Feb-12 13:56N 45°36' W 122°41'0 0.0
2018-Feb-12 13:29N 45°36' W 122°41'0 0.0
2018-Feb-12 12:32N 45°36' W 122°41'0 0.0
2018-Feb-12 12:26N 45°36' W 122°41'0 0.0
2018-Feb-12 11:59N 45°36' W 122°41'0 0.0
2018-Feb-12 11:29N 45°36' W 122°41'0 0.0
2018-Feb-12 10:56N 45°36' W 122°41'0 0.0
2018-Feb-12 10:29N 45°36' W 122°41'0 0.0
2018-Feb-12 09:59N 45°36' W 122°41'0 0.0
2018-Feb-12 09:26N 45°36' W 122°41'0 0.0
2018-Feb-12 08:47N 45°36' W 122°41'0 0.0
2018-Feb-12 08:29N 45°36' W 122°41'0 0.0
2018-Feb-12 07:56N 45°36' W 122°41'0 0.0
2018-Feb-12 07:26N 45°36' W 122°41'1 3.5
2018-Feb-12 07:00N 45°37' W 122°43'5 9.7
2018-Feb-12 06:30N 45°41' W 122°46'1 1.7
2018-Feb-12 05:47N 45°40' W 122°46'311.6
2018-Feb-12 05:30N 45°38' W 122°43'2 2.5
2018-Feb-12 04:41N 45°36' W 122°41'0 0.0
2018-Feb-12 04:29N 45°36' W 122°41'0 0.0
2018-Feb-12 03:53N 45°36' W 122°41'0 0.0
2018-Feb-12 03:26N 45°36' W 122°41'0 0.0
2018-Feb-12 02:53N 45°36' W 122°41'0 0.0
2018-Feb-12 02:23N 45°36' W 122°41'0 0.0
2018-Feb-12 01:44N 45°36' W 122°41'0 0.0
2018-Feb-12 01:29N 45°36' W 122°41'0 0.0
2018-Feb-12 00:59N 45°36' W 122°41'0 0.0
2018-Feb-12 00:29N 45°36' W 122°41'0 0.0
2018-Feb-11 23:59N 45°36' W 122°41'0 0.0
2018-Feb-11 23:26N 45°36' W 122°41'0 0.0
2018-Feb-11 22:53N 45°36' W 122°41'0 0.0
2018-Feb-11 22:26N 45°36' W 122°41'0 0.0
2018-Feb-11 21:56N 45°36' W 122°41'0 0.0
2018-Feb-11 21:26N 45°36' W 122°41'0 0.0
2018-Feb-11 20:53N 45°36' W 122°41'0 0.0
2018-Feb-11 19:53N 45°36' W 122°41'0 0.0
2018-Feb-11 19:11N 45°36' W 122°41'0 0.0
2018-Feb-11 18:53N 45°36' W 122°41'0 0.0
2018-Feb-11 18:23N 45°36' W 122°41'0 0.0
2018-Feb-11 17:59N 45°36' W 122°41'0 0.0
2018-Feb-11 17:29N 45°36' W 122°41'0 0.0
2018-Feb-11 16:59N 45°36' W 122°41'0 0.0
2018-Feb-11 16:17N 45°36' W 122°41'0 0.0
2018-Feb-11 15:59N 45°36' W 122°41'0 0.0
2018-Feb-11 15:29N 45°36' W 122°41'0 0.0
2018-Feb-11 14:44N 45°36' W 122°41'0 0.0
2018-Feb-11 14:26N 45°36' W 122°41'0 0.0
2018-Feb-11 13:56N 45°36' W 122°41'0 0.0
2018-Feb-11 13:29N 45°36' W 122°41'0 0.0
2018-Feb-11 12:59N 45°36' W 122°41'0 0.0
2018-Feb-11 12:26N 45°36' W 122°41'0 0.0
2018-Feb-11 11:53N 45°36' W 122°41'0 0.0
2018-Feb-11 11:29N 45°36' W 122°41'0 0.0
2018-Feb-11 10:38N 45°36' W 122°41'0 0.0
2018-Feb-11 10:29N 45°36' W 122°41'0 0.0
2018-Feb-11 09:56N 45°36' W 122°41'0 0.0
2018-Feb-11 09:26N 45°36' W 122°41'0 0.0
2018-Feb-11 08:32N 45°36' W 122°41'0 0.0
2018-Feb-11 08:29N 45°36' W 122°41'0 0.0
2018-Feb-11 07:59N 45°36' W 122°41'0 0.0
2018-Feb-11 07:29N 45°36' W 122°41'0 0.0
2018-Feb-11 06:32N 45°36' W 122°41'0 0.0
2018-Feb-11 06:17N 45°36' W 122°41'0 0.0
2018-Feb-11 05:47N 45°36' W 122°41'0 0.0
2018-Feb-11 05:29N 45°36' W 122°41'0 0.0
2018-Feb-11 04:56N 45°36' W 122°41'0 0.0
2018-Feb-11 04:23N 45°36' W 122°41'0 0.0
2018-Feb-11 03:50N 45°36' W 122°41'0 0.0
2018-Feb-11 03:20N 45°36' W 122°41'0 0.0
2018-Feb-11 02:14N 45°36' W 122°41'0 0.0
2018-Feb-11 01:56N 45°36' W 122°41'0 0.0
2018-Feb-11 01:11N 45°36' W 122°41'0 0.0
2018-Feb-11 00:17N 45°36' W 122°41'0 0.0
2018-Feb-10 23:47N 45°36' W 122°41'0 0.0
2018-Feb-10 23:26N 45°36' W 122°41'0 0.0
2018-Feb-10 22:59N 45°36' W 122°41'0 0.0
2018-Feb-10 22:29N 45°36' W 122°41'0 0.0
2018-Feb-10 21:59N 45°36' W 122°41'0 0.0
2018-Feb-10 21:29N 45°36' W 122°41'0 0.0
2018-Feb-10 20:50N 45°36' W 122°41'0 0.0
2018-Feb-10 20:26N 45°36' W 122°41'0 0.0
2018-Feb-10 19:47N 45°36' W 122°41'0 0.0
2018-Feb-10 19:29N 45°36' W 122°41'0 0.0
2018-Feb-10 18:56N 45°36' W 122°41'0 0.0
2018-Feb-10 18:29N 45°36' W 122°41'0 0.0
2018-Feb-10 17:59N 45°36' W 122°41'0 0.0
2018-Feb-10 17:29N 45°36' W 122°41'0 0.0
2018-Feb-10 16:47N 45°36' W 122°41'0 0.0
2018-Feb-10 16:29N 45°36' W 122°41'0 0.0
2018-Feb-10 15:53N 45°36' W 122°41'0 0.0
2018-Feb-10 15:20N 45°36' W 122°41'0 0.0
2018-Feb-10 14:59N 45°36' W 122°41'0 0.0
2018-Feb-10 14:26N 45°36' W 122°41'0 0.0
2018-Feb-10 13:59N 45°36' W 122°41'0 0.0
2018-Feb-10 13:17N 45°36' W 122°41'0 0.0
2018-Feb-10 12:56N 45°36' W 122°41'0 0.0
2018-Feb-10 12:29N 45°36' W 122°41'0 0.0
2018-Feb-10 11:59N 45°36' W 122°41'0 0.0
2018-Feb-10 11:02N 45°36' W 122°41'0 0.0
2018-Feb-10 10:59N 45°36' W 122°41'0 0.0
2018-Feb-10 10:14N 45°36' W 122°41'0 0.0
2018-Feb-10 09:56N 45°36' W 122°41'0 0.0
2018-Feb-10 09:26N 45°36' W 122°41'0 0.0
2018-Feb-10 08:56N 45°36' W 122°41'0 0.0
2018-Feb-10 08:26N 45°36' W 122°41'0 0.0
2018-Feb-10 07:59N 45°36' W 122°41'0 0.0
2018-Feb-10 07:23N 45°36' W 122°41'0 0.0
2018-Feb-10 06:05N 45°36' W 122°41'0 0.0
2018-Feb-10 05:56N 45°36' W 122°41'0 0.0
2018-Feb-10 05:20N 45°36' W 122°41'0 0.0
2018-Feb-10 04:59N 45°36' W 122°41'0 0.0
2018-Feb-10 04:29N 45°36' W 122°41'0 0.0
2018-Feb-10 03:44N 45°36' W 122°41'0 0.0
2018-Feb-10 02:56N 45°36' W 122°41'0 0.0
2018-Feb-10 02:14N 45°36' W 122°41'0 0.0
2018-Feb-10 01:56N 45°36' W 122°41'0 0.0
2018-Feb-10 01:29N 45°36' W 122°41'0 0.0
2018-Feb-10 00:59N 45°36' W 122°41'0 0.0
2018-Feb-10 00:29N 45°36' W 122°41'0 0.0
2018-Feb-09 23:53N 45°36' W 122°41'0 0.0
2018-Feb-09 23:29N 45°36' W 122°41'0 0.0
2018-Feb-09 22:44N 45°36' W 122°41'0 0.0
2018-Feb-08 01:27N 45°36' W 122°41'0 0.0
2018-Feb-08 00:45N 45°36' W 122°41'0 0.0
2018-Feb-07 23:57N 45°36' W 122°41'0 0.0
2018-Feb-07 23:27N 45°36' W 122°41'0 0.0
2018-Feb-07 23:00N 45°36' W 122°41'0 0.0
2018-Feb-07 22:30N 45°36' W 122°41'0 0.0
2018-Feb-07 21:51N 45°36' W 122°41'0 0.0
2018-Feb-07 21:27N 45°36' W 122°41'  
Track history (hours):
 
Tides and Currents Weather Stations Pressure Air Temp Water Temp Dewpoint Dewpoint Depression Visibility Wind Speed Wind Dir Waves Ship Positions

Triumph IV

Last reported at 2018-Feb-17 20:59 UTC. Time now 2018-Feb-17 21:18 UTC.
Position N 45°37' W 122°42'.

Length 13 m.

MMSI: 367177660.

Date/timePositionNaut miles runAvg speedWind from/ knotsBaromVisibWave heightAir tempDewpointWater temp
2018-Feb-17 20:59N 45°37' W 122°42'2 4.0
2018-Feb-17 20:30N 45°38' W 122°44'510.0
2018-Feb-17 20:00N 45°36' W 122°38'4 8.7
2018-Feb-17 19:30N 45°38' W 122°43'1 1.5
2018-Feb-17 18:32N 45°39' W 122°45'0 0.0
2018-Feb-17 18:26N 45°39' W 122°45'1 1.2
2018-Feb-17 17:43N 45°38' W 122°44'0 0.0
2018-Feb-17 17:28N 45°38' W 122°44'1 1.1
2018-Feb-17 16:42N 45°39' W 122°45'210.0
2018-Feb-17 16:30N 45°37' W 122°43'2 3.2
2018-Feb-17 15:59N 45°36' W 122°41'0 0.0
2018-Feb-17 15:29N 45°36' W 122°41'0 0.0
2018-Feb-17 14:41N 45°36' W 122°41'0 0.0
2018-Feb-17 14:29N 45°36' W 122°41'0 0.1
2018-Feb-17 14:00N 45°36' W 122°41'3 6.0
2018-Feb-17 13:30N 45°39' W 122°44'3 0.9
2018-Feb-17 10:14N 45°36' W 122°41'0 0.0
2018-Feb-17 09:56N 45°36' W 122°41'0 0.0
2018-Feb-17 09:23N 45°36' W 122°41'0 0.0
2018-Feb-17 08:56N 45°36' W 122°41'0 0.0
2018-Feb-17 08:26N 45°36' W 122°41'0 0.0
2018-Feb-17 07:59N 45°36' W 122°41'0 0.0
2018-Feb-17 07:29N 45°36' W 122°41'0 0.0
2018-Feb-17 06:50N 45°36' W 122°41'0 0.0
2018-Feb-17 05:59N 45°36' W 122°41'0 0.0
2018-Feb-17 05:26N 45°36' W 122°41'0 0.0
2018-Feb-17 04:59N 45°36' W 122°41'0 0.0
2018-Feb-17 04:29N 45°36' W 122°41'0 0.0
2018-Feb-17 03:08N 45°36' W 122°41'0 0.0
2018-Feb-17 02:59N 45°36' W 122°41'0 0.0
2018-Feb-17 02:29N 45°36' W 122°41'0 0.0
2018-Feb-17 01:59N 45°36' W 122°41'0 0.0
2018-Feb-17 01:23N 45°36' W 122°41'0 0.0
2018-Feb-17 00:59N 45°36' W 122°41'0 0.0
2018-Feb-17 00:26N 45°36' W 122°41'0 0.0
2018-Feb-16 23:56N 45°36' W 122°41'0 0.0
2018-Feb-16 23:29N 45°36' W 122°41'0 0.0
2018-Feb-16 22:59N 45°36' W 122°41'0 0.0
2018-Feb-16 22:14N 45°36' W 122°41'0 0.0
2018-Feb-16 21:50N 45°36' W 122°41'0 0.0
2018-Feb-16 20:23N 45°36' W 122°41'0 0.0
2018-Feb-16 19:56N 45°36' W 122°41'0 0.0
2018-Feb-16 19:23N 45°36' W 122°41'0 0.0
2018-Feb-16 18:56N 45°36' W 122°41'0 0.0
2018-Feb-16 18:29N 45°36' W 122°41'0 0.0
2018-Feb-16 17:53N 45°36' W 122°41'0 0.0
2018-Feb-16 17:20N 45°36' W 122°41'0 0.0
2018-Feb-16 16:11N 45°36' W 122°41'0 0.0
2018-Feb-16 15:50N 45°36' W 122°41'0 0.0
2018-Feb-16 15:29N 45°36' W 122°41'0 0.0
2018-Feb-16 14:50N 45°36' W 122°41'0 0.0
2018-Feb-16 14:17N 45°36' W 122°41'0 0.0
2018-Feb-16 13:56N 45°36' W 122°41'0 0.0
2018-Feb-16 13:26N 45°36' W 122°41'0 0.0
2018-Feb-16 12:59N 45°36' W 122°41'0 0.0
2018-Feb-16 12:29N 45°36' W 122°41'0 0.0
2018-Feb-16 11:41N 45°36' W 122°41'0 0.0
2018-Feb-16 11:29N 45°36' W 122°41'0 0.0
2018-Feb-16 10:59N 45°36' W 122°41'0 0.0
2018-Feb-16 10:29N 45°36' W 122°41'0 0.0
2018-Feb-16 09:59N 45°36' W 122°41'0 0.0
2018-Feb-16 09:02N 45°36' W 122°41'0 0.0
2018-Feb-16 08:59N 45°36' W 122°41'0 0.0
2018-Feb-16 08:30N 45°36' W 122°41'3 5.6
2018-Feb-16 08:00N 45°38' W 122°44'1 1.4
2018-Feb-16 07:27N 45°39' W 122°45'3 6.9
2018-Feb-16 07:01N 45°37' W 122°42'1 1.1
2018-Feb-16 06:26N 45°36' W 122°41'0 0.0
2018-Feb-16 05:56N 45°36' W 122°41'0 0.0
2018-Feb-16 05:27N 45°36' W 122°41'0 0.0
2018-Feb-16 04:47N 45°36' W 122°41'0 0.0
2018-Feb-16 04:29N 45°36' W 122°41'0 0.0
2018-Feb-16 03:59N 45°36' W 122°41'0 0.0
2018-Feb-16 03:29N 45°36' W 122°41'1 1.5
2018-Feb-16 02:59N 45°37' W 122°42'2 3.6
2018-Feb-16 02:29N 45°38' W 122°43'3 6.4
2018-Feb-16 01:59N 45°41' W 122°46'0 0.0
2018-Feb-16 01:30N 45°41' W 122°46'3 6.1
2018-Feb-16 01:00N 45°38' W 122°44'3 4.3
2018-Feb-16 00:23N 45°36' W 122°41'2 4.2
2018-Feb-16 00:00N 45°37' W 122°43'2 3.7
2018-Feb-15 23:30N 45°39' W 122°45'3 5.5
2018-Feb-15 23:00N 45°37' W 122°41'2 3.8
2018-Feb-15 22:30N 45°38' W 122°43'2 4.6
2018-Feb-15 21:59N 45°40' W 122°46'2 2.7
2018-Feb-15 21:26N 45°39' W 122°45'2 2.7
2018-Feb-15 20:52N 45°40' W 122°46'0 0.1
2018-Feb-15 20:30N 45°40' W 122°46'5 8.5
2018-Feb-15 19:57N 45°37' W 122°41'2 3.9
2018-Feb-15 19:30N 45°37' W 122°38'2 3.7
2018-Feb-15 18:59N 45°36' W 122°41'0 0.0
2018-Feb-15 18:17N 45°36' W 122°41'0 0.0
2018-Feb-15 17:59N 45°36' W 122°41'0 0.0
2018-Feb-15 17:29N 45°36' W 122°41'0 0.0
2018-Feb-15 16:50N 45°36' W 122°41'0 0.0
2018-Feb-15 16:26N 45°36' W 122°41'0 0.0
2018-Feb-15 15:53N 45°36' W 122°41'0 0.0
2018-Feb-15 15:29N 45°36' W 122°41'0 0.0
2018-Feb-15 14:56N 45°36' W 122°41'0 0.0
2018-Feb-15 14:29N 45°36' W 122°41'0 0.0
2018-Feb-15 13:59N 45°36' W 122°41'0 0.0
2018-Feb-15 13:26N 45°36' W 122°41'0 0.0
2018-Feb-15 12:59N 45°36' W 122°41'0 0.0
2018-Feb-15 12:29N 45°36' W 122°41'0 0.0
2018-Feb-15 11:11N 45°36' W 122°41'0 0.0
2018-Feb-15 10:53N 45°36' W 122°41'0 0.0
2018-Feb-15 10:02N 45°36' W 122°41'0 0.0
2018-Feb-15 09:59N 45°36' W 122°41'0 0.0
2018-Feb-15 09:29N 45°36' W 122°41'0 0.0
2018-Feb-15 08:59N 45°36' W 122°41'0 0.0
2018-Feb-15 08:26N 45°36' W 122°41'0 0.0
2018-Feb-15 07:56N 45°36' W 122°41'0 0.0
2018-Feb-15 07:29N 45°36' W 122°41'0 0.0
2018-Feb-15 06:59N 45°36' W 122°41'0 0.0
2018-Feb-15 06:02N 45°36' W 122°41'0 0.0
2018-Feb-15 05:56N 45°36' W 122°41'0 0.0
2018-Feb-15 05:29N 45°36' W 122°41'0 0.0
2018-Feb-15 04:59N 45°36' W 122°41'0 0.0
2018-Feb-15 04:29N 45°36' W 122°41'0 0.0
2018-Feb-15 03:56N 45°36' W 122°41'0 0.0
2018-Feb-15 03:29N 45°36' W 122°41'0 0.0
2018-Feb-15 02:59N 45°36' W 122°41'0 0.0
2018-Feb-15 02:23N 45°36' W 122°41'0 0.0
2018-Feb-15 01:53N 45°36' W 122°41'0 0.0
2018-Feb-15 01:29N 45°36' W 122°41'0 0.0
2018-Feb-15 00:59N 45°36' W 122°41'0 0.0
2018-Feb-15 00:29N 45°36' W 122°41'0 0.0
2018-Feb-14 23:59N 45°36' W 122°41'0 0.0
2018-Feb-14 23:29N 45°36' W 122°41'0 0.0
2018-Feb-14 22:59N 45°36' W 122°41'0 0.0
2018-Feb-14 22:23N 45°36' W 122°41'0 0.0
2018-Feb-14 21:59N 45°36' W 122°41'0 0.0
2018-Feb-14 21:26N 45°36' W 122°41'0 0.0
2018-Feb-14 20:59N 45°36' W 122°41'0 0.0
2018-Feb-14 20:29N 45°36' W 122°41'0 0.0
2018-Feb-14 19:59N 45°36' W 122°41'0 0.0
2018-Feb-14 19:26N 45°36' W 122°41'0 0.0
2018-Feb-14 18:53N 45°36' W 122°41'0 0.0
2018-Feb-14 18:29N 45°36' W 122°41'2 3.2
2018-Feb-14 17:59N 45°37' W 122°43'3 6.5
2018-Feb-14 17:27N 45°40' W 122°46'1 3.1
2018-Feb-14 17:00N 45°39' W 122°45'0 0.6
2018-Feb-14 16:30N 45°39' W 122°45'3 4.8
2018-Feb-14 15:47N 45°36' W 122°41'0 0.0
2018-Feb-14 15:23N 45°36' W 122°41'0 0.0
2018-Feb-14 14:59N 45°36' W 122°41'0 0.0
2018-Feb-14 14:11N 45°36' W 122°41'0 0.0
2018-Feb-14 13:56N 45°36' W 122°41'0 0.0
2018-Feb-14 13:29N 45°36' W 122°41'0 0.0
2018-Feb-14 12:50N 45°36' W 122°41'0 0.0
2018-Feb-14 12:30N 45°36' W 122°41'0 0.0
2018-Feb-14 11:26N 45°36' W 122°41'0 0.0
2018-Feb-14 10:41N 45°36' W 122°41'0 0.0
2018-Feb-14 10:26N 45°36' W 122°41'0 0.0
2018-Feb-14 09:59N 45°36' W 122°41'0 0.0
2018-Feb-14 09:29N 45°36' W 122°41'0 0.0
2018-Feb-14 08:56N 45°36' W 122°41'0 0.0
2018-Feb-14 08:29N 45°36' W 122°41'0 0.0
2018-Feb-14 07:59N 45°36' W 122°41'0 0.0
2018-Feb-14 07:27N 45°36' W 122°41'0 0.0
2018-Feb-14 06:53N 45°36' W 122°41'0 0.0
2018-Feb-14 06:29N 45°36' W 122°41'0 0.0
2018-Feb-14 05:56N 45°36' W 122°41'0 0.0
2018-Feb-14 05:29N 45°36' W 122°41'0 0.0
2018-Feb-14 04:56N 45°36' W 122°41'0 0.0
2018-Feb-14 04:26N 45°36' W 122°41'0 0.0
2018-Feb-14 03:59N 45°36' W 122°41'0 0.0
2018-Feb-14 03:30N 45°36' W 122°41'0 0.0
2018-Feb-14 02:59N 45°36' W 122°41'1 1.9
2018-Feb-14 02:30N 45°37' W 122°42'4 7.9
2018-Feb-14 01:59N 45°40' W 122°46'0 0.0
2018-Feb-14 01:23N 45°40' W 122°46'0 0.1
2018-Feb-14 00:56N 45°40' W 122°46'2 1.8
2018-Feb-14 00:04N 45°39' W 122°45'0 0.0
2018-Feb-14 00:00N 45°39' W 122°45'4 8.3
2018-Feb-13 23:29N 45°37' W 122°39'1 1.9
2018-Feb-13 22:57N 45°36' W 122°38'2 4.0
2018-Feb-13 22:29N 45°36' W 122°41'0 0.2
2018-Feb-13 21:19N 45°37' W 122°41'5 7.2
2018-Feb-13 20:36N 45°40' W 122°46'110.4
2018-Feb-13 20:29N 45°41' W 122°46'511.1
2018-Feb-13 20:00N 45°37' W 122°42'1 1.7
2018-Feb-13 19:29N 45°36' W 122°41'0 0.0
2018-Feb-13 18:59N 45°36' W 122°41'0 0.0
2018-Feb-13 18:17N 45°36' W 122°41'0 0.0
2018-Feb-13 17:44N 45°36' W 122°41'0 0.0
2018-Feb-13 17:23N 45°36' W 122°41'0 0.0
2018-Feb-13 16:50N 45°36' W 122°41'0 0.0
2018-Feb-13 16:29N 45°36' W 122°41'0 0.0
2018-Feb-13 15:38N 45°36' W 122°41'0 0.0
2018-Feb-13 15:20N 45°36' W 122°41'0 0.0
2018-Feb-13 14:59N 45°36' W 122°41'0 0.0
2018-Feb-13 14:23N 45°36' W 122°41'0 0.0
2018-Feb-13 13:59N 45°36' W 122°41'0 0.0
2018-Feb-13 13:26N 45°36' W 122°41'0 0.0
2018-Feb-13 12:44N 45°36' W 122°41'0 0.0
2018-Feb-13 12:29N 45°36' W 122°41'0 0.0
2018-Feb-13 11:59N 45°36' W 122°41'0 0.0
2018-Feb-13 11:26N 45°36' W 122°41'0 0.0
2018-Feb-13 10:56N 45°36' W 122°41'0 0.0
2018-Feb-13 10:23N 45°36' W 122°41'0 0.0
2018-Feb-13 09:56N 45°36' W 122°41'0 0.0
2018-Feb-13 09:23N 45°36' W 122°41'0 0.0
2018-Feb-13 08:59N 45°36' W 122°41'0 0.0
2018-Feb-13 08:26N 45°36' W 122°41'0 0.0
2018-Feb-13 07:53N 45°36' W 122°41'0 0.0
2018-Feb-13 07:26N 45°36' W 122°41'0 0.0
2018-Feb-13 06:56N 45°36' W 122°41'0 0.0
2018-Feb-13 06:26N 45°36' W 122°41'0 0.0
2018-Feb-13 05:47N 45°36' W 122°41'0 0.0
2018-Feb-13 05:23N 45°36' W 122°41'0 0.0
2018-Feb-13 04:59N 45°36' W 122°41'0 0.0
2018-Feb-13 04:17N 45°36' W 122°41'0 0.0
2018-Feb-13 03:47N 45°36' W 122°41'0 0.0
2018-Feb-13 03:14N 45°36' W 122°41'0 0.0
2018-Feb-13 02:59N 45°36' W 122°41'0 0.0
2018-Feb-13 02:26N 45°36' W 122°41'0 0.0
2018-Feb-13 01:44N 45°36' W 122°41'0 0.0
2018-Feb-13 01:29N 45°36' W 122°41'0 0.0
2018-Feb-13 00:59N 45°36' W 122°41'0 0.0
2018-Feb-13 00:05N 45°36' W 122°41'0 0.0
2018-Feb-12 23:44N 45°36' W 122°41'0 0.0
2018-Feb-12 23:29N 45°36' W 122°41'0 0.0
2018-Feb-12 22:35N 45°36' W 122°41'0 0.0
2018-Feb-12 22:23N 45°36' W 122°41'0 1.2
2018-Feb-12 22:00N 45°37' W 122°42'4 8.4
2018-Feb-12 21:30N 45°40' W 122°46'1 2.0
2018-Feb-12 20:59N 45°39' W 122°45'0 0.7
2018-Feb-12 20:18N 45°39' W 122°44'3 9.7
2018-Feb-12 20:00N 45°37' W 122°41'510.5
2018-Feb-12 19:30N 45°41' W 122°46'1 1.4
2018-Feb-12 19:00N 45°41' W 122°46'3 5.1
2018-Feb-12 18:30N 45°39' W 122°45'3 4.5
2018-Feb-12 17:57N 45°41' W 122°46'0 0.2
2018-Feb-12 17:30N 45°41' W 122°46'4 7.6
2018-Feb-12 16:59N 45°38' W 122°43'4 6.0
2018-Feb-12 16:20N 45°36' W 122°38'1 3.8
2018-Feb-12 15:59N 45°36' W 122°40'1 1.3
2018-Feb-12 15:29N 45°36' W 122°41'0 0.0
2018-Feb-12 14:56N 45°36' W 122°41'0 0.0
2018-Feb-12 13:56N 45°36' W 122°41'0 0.0
2018-Feb-12 13:29N 45°36' W 122°41'0 0.0
2018-Feb-12 12:32N 45°36' W 122°41'0 0.0
2018-Feb-12 12:26N 45°36' W 122°41'0 0.0
2018-Feb-12 11:59N 45°36' W 122°41'0 0.0
2018-Feb-12 11:29N 45°36' W 122°41'0 0.0
2018-Feb-12 10:56N 45°36' W 122°41'0 0.0
2018-Feb-12 10:29N 45°36' W 122°41'0 0.0
2018-Feb-12 09:59N 45°36' W 122°41'0 0.0
2018-Feb-12 09:26N 45°36' W 122°41'0 0.0
2018-Feb-12 08:47N 45°36' W 122°41'0 0.0
2018-Feb-12 08:29N 45°36' W 122°41'0 0.0
2018-Feb-12 07:56N 45°36' W 122°41'0 0.0
2018-Feb-12 07:26N 45°36' W 122°41'1 3.5
2018-Feb-12 07:00N 45°37' W 122°43'5 9.7
2018-Feb-12 06:30N 45°41' W 122°46'1 1.7
2018-Feb-12 05:47N 45°40' W 122°46'311.6
2018-Feb-12 05:30N 45°38' W 122°43'2 2.5
2018-Feb-12 04:41N 45°36' W 122°41'0 0.0
2018-Feb-12 04:29N 45°36' W 122°41'0 0.0
2018-Feb-12 03:53N 45°36' W 122°41'0 0.0
2018-Feb-12 03:26N 45°36' W 122°41'0 0.0
2018-Feb-12 02:53N 45°36' W 122°41'0 0.0
2018-Feb-12 02:23N 45°36' W 122°41'0 0.0
2018-Feb-12 01:44N 45°36' W 122°41'0 0.0
2018-Feb-12 01:29N 45°36' W 122°41'0 0.0
2018-Feb-12 00:59N 45°36' W 122°41'0 0.0
2018-Feb-12 00:29N 45°36' W 122°41'0 0.0
2018-Feb-11 23:59N 45°36' W 122°41'0 0.0
2018-Feb-11 23:26N 45°36' W 122°41'0 0.0
2018-Feb-11 22:53N 45°36' W 122°41'0 0.0
2018-Feb-11 22:26N 45°36' W 122°41'0 0.0
2018-Feb-11 21:56N 45°36' W 122°41'0 0.0
2018-Feb-11 21:26N 45°36' W 122°41'0 0.0
2018-Feb-11 20:53N 45°36' W 122°41'0 0.0
2018-Feb-11 19:53N 45°36' W 122°41'0 0.0
2018-Feb-11 19:11N 45°36' W 122°41'0 0.0
2018-Feb-11 18:53N 45°36' W 122°41'0 0.0
2018-Feb-11 18:23N 45°36' W 122°41'0 0.0
2018-Feb-11 17:59N 45°36' W 122°41'0 0.0
2018-Feb-11 17:29N 45°36' W 122°41'0 0.0
2018-Feb-11 16:59N 45°36' W 122°41'0 0.0
2018-Feb-11 16:17N 45°36' W 122°41'0 0.0
2018-Feb-11 15:59N 45°36' W 122°41'0 0.0
2018-Feb-11 15:29N 45°36' W 122°41'0 0.0
2018-Feb-11 14:44N 45°36' W 122°41'0 0.0
2018-Feb-11 14:26N 45°36' W 122°41'0 0.0
2018-Feb-11 13:56N 45°36' W 122°41'0 0.0
2018-Feb-11 13:29N 45°36' W 122°41'0 0.0
2018-Feb-11 12:59N 45°36' W 122°41'0 0.0
2018-Feb-11 12:26N 45°36' W 122°41'0 0.0
2018-Feb-11 11:53N 45°36' W 122°41'0 0.0
2018-Feb-11 11:29N 45°36' W 122°41'0 0.0
2018-Feb-11 10:38N 45°36' W 122°41'0 0.0
2018-Feb-11 10:29N 45°36' W 122°41'0 0.0
2018-Feb-11 09:56N 45°36' W 122°41'0 0.0
2018-Feb-11 09:26N 45°36' W 122°41'0 0.0
2018-Feb-11 08:32N 45°36' W 122°41'0 0.0
2018-Feb-11 08:29N 45°36' W 122°41'0 0.0
2018-Feb-11 07:59N 45°36' W 122°41'0 0.0
2018-Feb-11 07:29N 45°36' W 122°41'0 0.0
2018-Feb-11 06:32N 45°36' W 122°41'0 0.0
2018-Feb-11 06:17N 45°36' W 122°41'0 0.0
2018-Feb-11 05:47N 45°36' W 122°41'0 0.0
2018-Feb-11 05:29N 45°36' W 122°41'0 0.0
2018-Feb-11 04:56N 45°36' W 122°41'0 0.0
2018-Feb-11 04:23N 45°36' W 122°41'0 0.0
2018-Feb-11 03:50N 45°36' W 122°41'0 0.0
2018-Feb-11 03:20N 45°36' W 122°41'0 0.0
2018-Feb-11 02:14N 45°36' W 122°41'0 0.0
2018-Feb-11 01:56N 45°36' W 122°41'0 0.0
2018-Feb-11 01:11N 45°36' W 122°41'0 0.0
2018-Feb-11 00:17N 45°36' W 122°41'0 0.0
2018-Feb-10 23:47N 45°36' W 122°41'0 0.0
2018-Feb-10 23:26N 45°36' W 122°41'0 0.0
2018-Feb-10 22:59N 45°36' W 122°41'0 0.0
2018-Feb-10 22:29N 45°36' W 122°41'0 0.0
2018-Feb-10 21:59N 45°36' W 122°41'0 0.0
2018-Feb-10 21:29N 45°36' W 122°41'0 0.0
2018-Feb-10 20:50N 45°36' W 122°41'0 0.0
2018-Feb-10 20:26N 45°36' W 122°41'0 0.0
2018-Feb-10 19:47N 45°36' W 122°41'0 0.0
2018-Feb-10 19:29N 45°36' W 122°41'0 0.0
2018-Feb-10 18:56N 45°36' W 122°41'0 0.0
2018-Feb-10 18:29N 45°36' W 122°41'0 0.0
2018-Feb-10 17:59N 45°36' W 122°41'0 0.0
2018-Feb-10 17:29N 45°36' W 122°41'0 0.0
2018-Feb-10 16:47N 45°36' W 122°41'0 0.0
2018-Feb-10 16:29N 45°36' W 122°41'0 0.0
2018-Feb-10 15:53N 45°36' W 122°41'0 0.0
2018-Feb-10 15:20N 45°36' W 122°41'0 0.0
2018-Feb-10 14:59N 45°36' W 122°41'0 0.0
2018-Feb-10 14:26N 45°36' W 122°41'0 0.0
2018-Feb-10 13:59N 45°36' W 122°41'0 0.0
2018-Feb-10 13:17N 45°36' W 122°41'0 0.0
2018-Feb-10 12:56N 45°36' W 122°41'0 0.0
2018-Feb-10 12:29N 45°36' W 122°41'0 0.0
2018-Feb-10 11:59N 45°36' W 122°41'0 0.0
2018-Feb-10 11:02N 45°36' W 122°41'0 0.0
2018-Feb-10 10:59N 45°36' W 122°41'0 0.0
2018-Feb-10 10:14N 45°36' W 122°41'0 0.0
2018-Feb-10 09:56N 45°36' W 122°41'0 0.0
2018-Feb-10 09:26N 45°36' W 122°41'0 0.0
2018-Feb-10 08:56N 45°36' W 122°41'0 0.0
2018-Feb-10 08:26N 45°36' W 122°41'0 0.0
2018-Feb-10 07:59N 45°36' W 122°41'0 0.0
2018-Feb-10 07:23N 45°36' W 122°41'0 0.0
2018-Feb-10 06:05N 45°36' W 122°41'0 0.0
2018-Feb-10 05:56N 45°36' W 122°41'0 0.0
2018-Feb-10 05:20N 45°36' W 122°41'0 0.0
2018-Feb-10 04:59N 45°36' W 122°41'0 0.0
2018-Feb-10 04:29N 45°36' W 122°41'0 0.0
2018-Feb-10 03:44N 45°36' W 122°41'0 0.0
2018-Feb-10 02:56N 45°36' W 122°41'0 0.0
2018-Feb-10 02:14N 45°36' W 122°41'0 0.0
2018-Feb-10 01:56N 45°36' W 122°41'0 0.0
2018-Feb-10 01:29N 45°36' W 122°41'0 0.0
2018-Feb-10 00:59N 45°36' W 122°41'0 0.0
2018-Feb-10 00:29N 45°36' W 122°41'0 0.0
2018-Feb-09 23:53N 45°36' W 122°41'0 0.0
2018-Feb-09 23:29N 45°36' W 122°41'0 0.0
2018-Feb-09 22:44N 45°36' W 122°41'0 0.0
2018-Feb-08 01:27N 45°36' W 122°41'0 0.0
2018-Feb-08 00:45N 45°36' W 122°41'0 0.0
2018-Feb-07 23:57N 45°36' W 122°41'0 0.0
2018-Feb-07 23:27N 45°36' W 122°41'0 0.0
2018-Feb-07 23:00N 45°36' W 122°41'0 0.0
2018-Feb-07 22:30N 45°36' W 122°41'0 0.0
2018-Feb-07 21:51N 45°36' W 122°41'0 0.0
2018-Feb-07 21:27N 45°36' W 122°41'  

Dump ship's entire track history